YCIN

Details ICAO YCIN
Name Curtin
Region Australia
Timezone Australia/Perth (UTC+8.0)
Plans Departing 12
Arriving 14
Stats Elevation 300 ft / 91 m (AMSL)
Location -17.580430° 123.828553°
Runways 1
Magnetic Variation 1.971° E
Sunrise 2018-05-20 22:05:34 UTC / 2018-05-21 06:05:34 Local
Sunset 2018-05-21 09:19:47 UTC / 2018-05-21 17:19:47 Local
Advertisement - Login to hide

Runways

ID Width Length Bearing (true) Bearing (mag) Surface Threshold Offset Overrun Length
11 148 ft / 45 m 9,997 ft / 3,047 m 110.50° 108.53° Asphalt 0 ft / 0 m 177 ft / 54 m
29 148 ft / 45 m 9,997 ft / 3,047 m 290.50° 288.53° Asphalt 0 ft / 0 m 174 ft / 53 m

Map

Weather


0- 5 10 15 20 25 30 35+ Temperature / ° C

Clouds and Precipitation
Forecast for 2018-05-21 12:00 UTC. Updated 19 minutes ago

Ground ~20,000 ft ~40,000 ft Winds

METAR

YCIN 211100Z AUTO 16007KT 9999 // NCD 24/06 Q1015

TAF

TAF YCIN 210612Z 2108/2120 11012KT CAVOK

Frequencies

Unicom 126.70 MHz CTAF
Tower 118.30 MHz TWR
Warning: Do not use this data for real-world aviation or navigation. No guarantee of current accuracy is given.